sensor_id;sensor_type;location;lat;lon;timestamp;pressure;altitude;pressure_sealevel;temperature;humidity
13068;BME280;6600;51.362;6.686;2023-06-10T00:01:29;100949.22;;;23.36;62.13
13068;BME280;6600;51.362;6.686;2023-06-10T00:03:55;100955.91;;;23.48;62.26
13068;BME280;6600;51.362;6.686;2023-06-10T00:06:20;100950.06;;;23.36;62.28
13068;BME280;6600;51.362;6.686;2023-06-10T00:08:49;100956.94;;;23.34;62.28
13068;BME280;6600;51.362;6.686;2023-06-10T00:11:15;100957.28;;;23.27;62.29
13068;BME280;6600;51.362;6.686;2023-06-10T00:13:40;100956.75;;;23.25;62.49
13068;BME280;6600;51.362;6.686;2023-06-10T00:16:05;100957.34;;;23.22;62.24
13068;BME280;6600;51.362;6.686;2023-06-10T00:18:31;100957.16;;;23.13;62.85
13068;BME280;6600;51.362;6.686;2023-06-10T00:20:57;100961.78;;;23.18;62.75
13068;BME280;6600;51.362;6.686;2023-06-10T00:23:28;100954.16;;;23.15;62.91
13068;BME280;6600;51.362;6.686;2023-06-10T00:25:57;100952.59;;;23.09;63.06
13068;BME280;6600;51.362;6.686;2023-06-10T00:28:22;100952.06;;;23.07;63.10
13068;BME280;6600;51.362;6.686;2023-06-10T00:30:48;100952.66;;;23.04;63.42
13068;BME280;6600;51.362;6.686;2023-06-10T00:33:13;100955.47;;;22.99;63.20
13068;BME280;6600;51.362;6.686;2023-06-10T00:35:38;100955.00;;;22.92;63.89
13068;BME280;6600;51.362;6.686;2023-06-10T00:38:03;100954.41;;;22.95;63.82
13068;BME280;6600;51.362;6.686;2023-06-10T00:40:29;100958.25;;;22.94;64.00
13068;BME280;6600;51.362;6.686;2023-06-10T00:42:54;100964.81;;;22.93;64.21
13068;BME280;6600;51.362;6.686;2023-06-10T00:45:20;100968.13;;;22.90;64.41
13068;BME280;6600;51.362;6.686;2023-06-10T00:47:45;100960.34;;;22.78;64.86
13068;BME280;6600;51.362;6.686;2023-06-10T00:50:10;100959.53;;;22.78;65.27
13068;BME280;6600;51.362;6.686;2023-06-10T00:52:36;100963.38;;;22.77;65.41
13068;BME280;6600;51.362;6.686;2023-06-10T00:55:01;100958.38;;;22.84;64.94
13068;BME280;6600;51.362;6.686;2023-06-10T00:57:27;100963.25;;;22.87;64.41
13068;BME280;6600;51.362;6.686;2023-06-10T00:59:54;100962.53;;;22.76;64.31
13068;BME280;6600;51.362;6.686;2023-06-10T01:02:19;100952.97;;;22.79;64.67
13068;BME280;6600;51.362;6.686;2023-06-10T01:04:45;100948.72;;;22.68;65.38
13068;BME280;6600;51.362;6.686;2023-06-10T01:07:34;100959.16;;;22.60;66.56
13068;BME280;6600;51.362;6.686;2023-06-10T01:10:10;100953.44;;;22.57;67.57
13068;BME280;6600;51.362;6.686;2023-06-10T01:15:05;100956.91;;;22.39;68.14
13068;BME280;6600;51.362;6.686;2023-06-10T01:17:31;100959.50;;;22.25;68.69
13068;BME280;6600;51.362;6.686;2023-06-10T01:19:57;100960.09;;;22.17;68.56
13068;BME280;6600;51.362;6.686;2023-06-10T01:22:26;100969.41;;;22.16;68.50
13068;BME280;6600;51.362;6.686;2023-06-10T01:24:57;100974.88;;;22.16;68.81
13068;BME280;6600;51.362;6.686;2023-06-10T01:27:27;100974.38;;;22.09;69.66
13068;BME280;6600;51.362;6.686;2023-06-10T01:29:59;100976.16;;;21.90;70.75
13068;BME280;6600;51.362;6.686;2023-06-10T01:32:33;100974.59;;;21.79;70.89
13068;BME280;6600;51.362;6.686;2023-06-10T01:35:01;100965.34;;;21.70;71.16
13068;BME280;6600;51.362;6.686;2023-06-10T01:37:27;100972.50;;;21.60;71.28
13068;BME280;6600;51.362;6.686;2023-06-10T01:39:57;100978.78;;;21.61;71.21
13068;BME280;6600;51.362;6.686;2023-06-10T01:42:24;100977.97;;;21.55;71.90
13068;BME280;6600;51.362;6.686;2023-06-10T01:44:50;100970.16;;;21.44;72.45
13068;BME280;6600;51.362;6.686;2023-06-10T01:47:15;100976.44;;;21.39;73.00
13068;BME280;6600;51.362;6.686;2023-06-10T01:49:41;100975.38;;;21.35;72.97
13068;BME280;6600;51.362;6.686;2023-06-10T01:52:06;100971.06;;;21.29;73.58
13068;BME280;6600;51.362;6.686;2023-06-10T01:54:32;100972.75;;;21.20;73.55
13068;BME280;6600;51.362;6.686;2023-06-10T01:56:59;100966.22;;;21.16;74.24
13068;BME280;6600;51.362;6.686;2023-06-10T01:59:25;100982.25;;;21.23;74.37
13068;BME280;6600;51.362;6.686;2023-06-10T02:01:50;100983.34;;;21.27;74.25
13068;BME280;6600;51.362;6.686;2023-06-10T02:04:15;100984.94;;;21.28;74.43
13068;BME280;6600;51.362;6.686;2023-06-10T02:06:41;100978.44;;;21.24;74.67
13068;BME280;6600;51.362;6.686;2023-06-10T02:09:07;100986.88;;;21.22;75.09
13068;BME280;6600;51.362;6.686;2023-06-10T02:11:33;100980.09;;;21.20;75.02
13068;BME280;6600;51.362;6.686;2023-06-10T02:13:58;100982.56;;;21.16;75.26
13068;BME280;6600;51.362;6.686;2023-06-10T02:16:23;100987.44;;;21.19;75.52
13068;BME280;6600;51.362;6.686;2023-06-10T02:18:49;100977.13;;;21.06;76.10
13068;BME280;6600;51.362;6.686;2023-06-10T02:21:14;100990.19;;;21.04;76.19
13068;BME280;6600;51.362;6.686;2023-06-10T02:23:40;100980.41;;;20.98;76.47
13068;BME280;6600;51.362;6.686;2023-06-10T02:26:05;100996.50;;;20.89;77.38
13068;BME280;6600;51.362;6.686;2023-06-10T02:28:31;100983.69;;;20.90;76.96
13068;BME280;6600;51.362;6.686;2023-06-10T02:30:56;100992.72;;;20.85;76.95
13068;BME280;6600;51.362;6.686;2023-06-10T02:33:22;100995.72;;;20.89;77.46
13068;BME280;6600;51.362;6.686;2023-06-10T02:35:48;100998.44;;;20.89;77.85
13068;BME280;6600;51.362;6.686;2023-06-10T02:38:13;100988.34;;;20.84;77.80
13068;BME280;6600;51.362;6.686;2023-06-10T02:40:39;100989.19;;;20.85;77.38
13068;BME280;6600;51.362;6.686;2023-06-10T02:43:04;100989.72;;;20.87;77.52
13068;BME280;6600;51.362;6.686;2023-06-10T02:45:29;100992.44;;;20.87;77.23
13068;BME280;6600;51.362;6.686;2023-06-10T02:47:54;100990.81;;;20.81;77.86
13068;BME280;6600;51.362;6.686;2023-06-10T02:50:20;100996.56;;;20.74;78.41
13068;BME280;6600;51.362;6.686;2023-06-10T02:52:45;100994.09;;;20.73;78.11
13068;BME280;6600;51.362;6.686;2023-06-10T02:55:11;100992.78;;;20.65;78.03
13068;BME280;6600;51.362;6.686;2023-06-10T02:57:36;100991.97;;;20.64;77.79
13068;BME280;6600;51.362;6.686;2023-06-10T03:00:02;100990.88;;;20.60;77.97
13068;BME280;6600;51.362;6.686;2023-06-10T03:02:29;100994.13;;;20.62;77.22
13068;BME280;6600;51.362;6.686;2023-06-10T03:04:57;100994.66;;;20.59;77.44
13068;BME280;6600;51.362;6.686;2023-06-10T03:07:22;100992.75;;;20.55;77.80
13068;BME280;6600;51.362;6.686;2023-06-10T03:09:48;100999.06;;;20.50;78.42
13068;BME280;6600;51.362;6.686;2023-06-10T03:12:14;100995.78;;;20.43;78.40
13068;BME280;6600;51.362;6.686;2023-06-10T03:14:39;101001.78;;;20.40;78.36
13068;BME280;6600;51.362;6.686;2023-06-10T03:17:05;100999.88;;;20.31;79.52
13068;BME280;6600;51.362;6.686;2023-06-10T03:19:31;100998.50;;;20.23;80.33
13068;BME280;6600;51.362;6.686;2023-06-10T03:22:08;101000.13;;;20.19;80.64
13068;BME280;6600;51.362;6.686;2023-06-10T03:24:34;100996.84;;;20.07;82.36
13068;BME280;6600;51.362;6.686;2023-06-10T03:27:01;101006.66;;;20.08;81.56
13068;BME280;6600;51.362;6.686;2023-06-10T03:29:26;101003.38;;;20.01;82.50
13068;BME280;6600;51.362;6.686;2023-06-10T03:31:51;101003.91;;;19.98;82.41
13068;BME280;6600;51.362;6.686;2023-06-10T03:34:16;101008.81;;;19.91;83.00
13068;BME280;6600;51.362;6.686;2023-06-10T03:36:42;101004.44;;;19.85;83.87
13068;BME280;6600;51.362;6.686;2023-06-10T03:39:08;101007.16;;;19.80;85.29
13068;BME280;6600;51.362;6.686;2023-06-10T03:41:33;101005.53;;;19.79;85.71
13068;BME280;6600;51.362;6.686;2023-06-10T03:43:59;101013.94;;;19.77;85.50
13068;BME280;6600;51.362;6.686;2023-06-10T03:46:25;101019.09;;;19.74;86.53
13068;BME280;6600;51.362;6.686;2023-06-10T03:48:50;101020.72;;;19.70;86.80
13068;BME280;6600;51.362;6.686;2023-06-10T03:51:16;101027.81;;;19.71;86.91
13068;BME280;6600;51.362;6.686;2023-06-10T03:53:41;101022.09;;;19.67;88.08
13068;BME280;6600;51.362;6.686;2023-06-10T03:56:07;101034.31;;;19.70;88.29
13068;BME280;6600;51.362;6.686;2023-06-10T03:58:32;101027.25;;;19.69;89.13
13068;BME280;6600;51.362;6.686;2023-06-10T04:00:57;101025.91;;;19.71;89.54
13068;BME280;6600;51.362;6.686;2023-06-10T04:03:23;101025.38;;;19.74;90.10
13068;BME280;6600;51.362;6.686;2023-06-10T04:05:49;101029.97;;;19.74;90.78
13068;BME280;6600;51.362;6.686;2023-06-10T04:08:15;101036.25;;;19.74;91.87
13068;BME280;6600;51.362;6.686;2023-06-10T04:10:40;101032.72;;;19.79;91.79
13068;BME280;6600;51.362;6.686;2023-06-10T04:13:06;101039.25;;;19.83;93.32
13068;BME280;6600;51.362;6.686;2023-06-10T04:15:31;101040.91;;;19.94;92.25
13068;BME280;6600;51.362;6.686;2023-06-10T04:17:59;101038.19;;;19.99;92.05
13068;BME280;6600;51.362;6.686;2023-06-10T04:20:26;101039.28;;;19.98;93.79
13068;BME280;6600;51.362;6.686;2023-06-10T04:22:51;101043.63;;;19.99;93.32
13068;BME280;6600;51.362;6.686;2023-06-10T04:25:17;101043.91;;;20.02;93.52
13068;BME280;6600;51.362;6.686;2023-06-10T04:27:43;101042.56;;;20.05;94.46
13068;BME280;6600;51.362;6.686;2023-06-10T04:30:09;101047.72;;;20.11;92.85
13068;BME280;6600;51.362;6.686;2023-06-10T04:32:34;101052.38;;;20.16;94.31
13068;BME280;6600;51.362;6.686;2023-06-10T04:35:00;101057.81;;;20.26;92.71
13068;BME280;6600;51.362;6.686;2023-06-10T04:37:25;101054.03;;;20.37;91.86
13068;BME280;6600;51.362;6.686;2023-06-10T04:39:50;101055.66;;;20.53;91.98
13068;BME280;6600;51.362;6.686;2023-06-10T04:42:15;101061.66;;;20.71;90.38
13068;BME280;6600;51.362;6.686;2023-06-10T04:44:41;101061.63;;;20.81;89.20
13068;BME280;6600;51.362;6.686;2023-06-10T04:47:06;101055.31;;;21.10;87.46
13068;BME280;6600;51.362;6.686;2023-06-10T04:49:33;101056.53;;;21.48;84.65
13068;BME280;6600;51.362;6.686;2023-06-10T04:51:58;101057.22;;;21.79;80.13
13068;BME280;6600;51.362;6.686;2023-06-10T04:54:25;101050.16;;;22.22;77.89
13068;BME280;6600;51.362;6.686;2023-06-10T04:56:50;101041.84;;;22.66;75.62
13068;BME280;6600;51.362;6.686;2023-06-10T04:59:15;101045.34;;;23.00;73.66
13068;BME280;6600;51.362;6.686;2023-06-10T05:01:41;101043.75;;;23.23;71.52
13068;BME280;6600;51.362;6.686;2023-06-10T05:04:06;101049.53;;;23.40;71.90
13068;BME280;6600;51.362;6.686;2023-06-10T05:06:31;101051.50;;;23.58;71.17
13068;BME280;6600;51.362;6.686;2023-06-10T05:08:57;101047.44;;;23.56;70.66
13068;BME280;6600;51.362;6.686;2023-06-10T05:11:22;101051.38;;;23.69;70.43
13068;BME280;6600;51.362;6.686;2023-06-10T05:13:47;101043.47;;;23.67;71.20
13068;BME280;6600;51.362;6.686;2023-06-10T05:16:14;101046.50;;;23.65;70.25
13068;BME280;6600;51.362;6.686;2023-06-10T05:18:40;101049.69;;;23.54;70.81
13068;BME280;6600;51.362;6.686;2023-06-10T05:21:05;101049.09;;;23.57;70.02
13068;BME280;6600;51.362;6.686;2023-06-10T05:23:31;101063.63;;;23.52;70.61
13068;BME280;6600;51.362;6.686;2023-06-10T05:25:56;101053.69;;;23.61;70.26
13068;BME280;6600;51.362;6.686;2023-06-10T05:28:22;101055.69;;;23.75;70.59
13068;BME280;6600;51.362;6.686;2023-06-10T05:30:47;101062.19;;;23.79;69.83
13068;BME280;6600;51.362;6.686;2023-06-10T05:33:12;101063.88;;;23.93;68.50
13068;BME280;6600;51.362;6.686;2023-06-10T05:35:38;101059.97;;;23.81;69.08
13068;BME280;6600;51.362;6.686;2023-06-10T05:38:03;101064.25;;;23.87;68.58
13068;BME280;6600;51.362;6.686;2023-06-10T05:40:28;101058.19;;;23.90;68.62
13068;BME280;6600;51.362;6.686;2023-06-10T05:42:54;101062.66;;;23.86;68.88
13068;BME280;6600;51.362;6.686;2023-06-10T05:45:19;101067.09;;;23.82;68.13
13068;BME280;6600;51.362;6.686;2023-06-10T05:47:44;101065.81;;;23.93;69.15
13068;BME280;6600;51.362;6.686;2023-06-10T05:50:10;101061.16;;;24.12;69.20
13068;BME280;6600;51.362;6.686;2023-06-10T05:52:36;101065.06;;;23.87;67.91
13068;BME280;6600;51.362;6.686;2023-06-10T05:55:04;101067.16;;;23.95;67.65
13068;BME280;6600;51.362;6.686;2023-06-10T05:57:30;101068.63;;;23.88;67.71
13068;BME280;6600;51.362;6.686;2023-06-10T05:59:55;101064.78;;;23.70;67.47
13068;BME280;6600;51.362;6.686;2023-06-10T06:02:20;101073.00;;;23.89;69.14
13068;BME280;6600;51.362;6.686;2023-06-10T06:04:46;101071.72;;;23.81;68.08
13068;BME280;6600;51.362;6.686;2023-06-10T06:07:11;101064.84;;;23.65;68.98
13068;BME280;6600;51.362;6.686;2023-06-10T06:09:36;101065.66;;;23.84;69.40
13068;BME280;6600;51.362;6.686;2023-06-10T06:12:02;101071.16;;;24.03;69.25
13068;BME280;6600;51.362;6.686;2023-06-10T06:14:31;101074.63;;;24.27;68.07
13068;BME280;6600;51.362;6.686;2023-06-10T06:16:57;101071.16;;;24.22;66.72
13068;BME280;6600;51.362;6.686;2023-06-10T06:19:22;101069.00;;;24.00;66.51
13068;BME280;6600;51.362;6.686;2023-06-10T06:21:47;101074.22;;;24.20;67.04
13068;BME280;6600;51.362;6.686;2023-06-10T06:24:14;101065.00;;;24.11;65.27
13068;BME280;6600;51.362;6.686;2023-06-10T06:26:40;101059.44;;;23.97;65.22
13068;BME280;6600;51.362;6.686;2023-06-10T06:29:05;101062.81;;;24.13;65.83
13068;BME280;6600;51.362;6.686;2023-06-10T06:31:30;101068.53;;;23.93;64.93
13068;BME280;6600;51.362;6.686;2023-06-10T06:33:56;101072.41;;;23.92;64.87
13068;BME280;6600;51.362;6.686;2023-06-10T06:36:22;101071.81;;;23.95;65.85
13068;BME280;6600;51.362;6.686;2023-06-10T06:38:47;101072.59;;;24.19;66.09
13068;BME280;6600;51.362;6.686;2023-06-10T06:41:13;101068.03;;;24.28;65.38
13068;BME280;6600;51.362;6.686;2023-06-10T06:43:38;101072.09;;;24.49;64.71
13068;BME280;6600;51.362;6.686;2023-06-10T06:46:03;101062.00;;;24.77;64.81
13068;BME280;6600;51.362;6.686;2023-06-10T06:48:29;101074.75;;;24.87;63.43
13068;BME280;6600;51.362;6.686;2023-06-10T06:50:54;101077.63;;;24.77;63.01
13068;BME280;6600;51.362;6.686;2023-06-10T06:53:21;101081.66;;;24.98;62.71
13068;BME280;6600;51.362;6.686;2023-06-10T06:55:47;101074.47;;;24.88;62.31
13068;BME280;6600;51.362;6.686;2023-06-10T06:58:12;101083.19;;;25.04;61.41
13068;BME280;6600;51.362;6.686;2023-06-10T07:00:37;101075.09;;;25.26;61.15
13068;BME280;6600;51.362;6.686;2023-06-10T07:03:03;101090.97;;;25.56;60.58
13068;BME280;6600;51.362;6.686;2023-06-10T07:05:28;101090.34;;;25.59;59.53
13068;BME280;6600;51.362;6.686;2023-06-10T07:07:54;101090.13;;;25.70;60.18
13068;BME280;6600;51.362;6.686;2023-06-10T07:10:22;101089.38;;;25.91;59.83
13068;BME280;6600;51.362;6.686;2023-06-10T07:12:48;101088.19;;;25.70;58.92
13068;BME280;6600;51.362;6.686;2023-06-10T07:15:13;101082.59;;;25.89;59.28
13068;BME280;6600;51.362;6.686;2023-06-10T07:17:39;101092.66;;;25.80;57.81
13068;BME280;6600;51.362;6.686;2023-06-10T07:20:04;101089.50;;;25.73;58.49
13068;BME280;6600;51.362;6.686;2023-06-10T07:22:30;101089.03;;;25.71;57.94
13068;BME280;6600;51.362;6.686;2023-06-10T07:24:55;101089.13;;;25.66;58.09
13068;BME280;6600;51.362;6.686;2023-06-10T07:27:21;101087.94;;;25.94;56.64
13068;BME280;6600;51.362;6.686;2023-06-10T07:29:46;101081.03;;;25.96;58.27
13068;BME280;6600;51.362;6.686;2023-06-10T07:32:11;101092.59;;;26.07;58.07
13068;BME280;6600;51.362;6.686;2023-06-10T07:34:37;101083.63;;;26.15;56.06
13068;BME280;6600;51.362;6.686;2023-06-10T07:37:02;101085.16;;;26.21;55.37
13068;BME280;6600;51.362;6.686;2023-06-10T07:39:28;101084.66;;;26.41;55.04
13068;BME280;6600;51.362;6.686;2023-06-10T07:41:53;101077.19;;;26.33;54.21
13068;BME280;6600;51.362;6.686;2023-06-10T07:44:19;101092.66;;;26.51;55.08
13068;BME280;6600;51.362;6.686;2023-06-10T07:46:44;101088.53;;;26.62;55.30
13068;BME280;6600;51.362;6.686;2023-06-10T07:49:10;101087.44;;;26.72;54.81
13068;BME280;6600;51.362;6.686;2023-06-10T07:51:35;101086.78;;;26.67;54.53
13068;BME280;6600;51.362;6.686;2023-06-10T07:54:01;101091.53;;;26.75;54.92
13068;BME280;6600;51.362;6.686;2023-06-10T07:56:27;101082.16;;;26.53;54.42
13068;BME280;6600;51.362;6.686;2023-06-10T07:58:52;101092.94;;;26.72;53.05
13068;BME280;6600;51.362;6.686;2023-06-10T08:01:17;101089.41;;;26.72;54.29
13068;BME280;6600;51.362;6.686;2023-06-10T08:03:45;101090.25;;;26.81;53.76
13068;BME280;6600;51.362;6.686;2023-06-10T08:06:10;101093.47;;;26.74;53.91
13068;BME280;6600;51.362;6.686;2023-06-10T08:08:37;101077.91;;;26.92;54.32
13068;BME280;6600;51.362;6.686;2023-06-10T08:11:07;101083.28;;;26.75;54.56
13068;BME280;6600;51.362;6.686;2023-06-10T08:13:32;101079.59;;;27.10;54.46
13068;BME280;6600;51.362;6.686;2023-06-10T08:15:58;101079.75;;;27.05;53.98
13068;BME280;6600;51.362;6.686;2023-06-10T08:18:23;101078.88;;;27.27;53.24
13068;BME280;6600;51.362;6.686;2023-06-10T08:20:48;101091.66;;;27.31;54.55
13068;BME280;6600;51.362;6.686;2023-06-10T08:23:14;101089.34;;;27.16;53.51
13068;BME280;6600;51.362;6.686;2023-06-10T08:25:39;101089.91;;;27.35;53.87
13068;BME280;6600;51.362;6.686;2023-06-10T08:28:05;101087.56;;;27.59;52.65
13068;BME280;6600;51.362;6.686;2023-06-10T08:30:30;101085.16;;;27.58;51.85
13068;BME280;6600;51.362;6.686;2023-06-10T08:32:55;101089.19;;;27.60;51.95
13068;BME280;6600;51.362;6.686;2023-06-10T08:35:21;101085.03;;;27.72;52.54
13068;BME280;6600;51.362;6.686;2023-06-10T08:37:46;101093.28;;;27.80;51.55
13068;BME280;6600;51.362;6.686;2023-06-10T08:40:12;101088.72;;;27.76;51.76
13068;BME280;6600;51.362;6.686;2023-06-10T08:42:57;101082.63;;;27.96;51.31
13068;BME280;6600;51.362;6.686;2023-06-10T08:45:27;101088.91;;;27.71;52.00
13068;BME280;6600;51.362;6.686;2023-06-10T08:47:56;101087.59;;;27.77;52.05
13068;BME280;6600;51.362;6.686;2023-06-10T08:50:22;101086.63;;;27.73;51.58
13068;BME280;6600;51.362;6.686;2023-06-10T08:52:50;101084.84;;;27.77;51.86
13068;BME280;6600;51.362;6.686;2023-06-10T08:55:24;101083.19;;;27.50;51.92
13068;BME280;6600;51.362;6.686;2023-06-10T08:57:51;101083.06;;;27.64;51.92
13068;BME280;6600;51.362;6.686;2023-06-10T09:00:18;101077.25;;;27.74;52.01
13068;BME280;6600;51.362;6.686;2023-06-10T09:02:44;101085.19;;;27.75;52.93
13068;BME280;6600;51.362;6.686;2023-06-10T09:05:10;101078.88;;;27.92;51.68
13068;BME280;6600;51.362;6.686;2023-06-10T09:07:36;101075.81;;;27.85;51.43
13068;BME280;6600;51.362;6.686;2023-06-10T09:10:02;101079.22;;;27.99;51.59
13068;BME280;6600;51.362;6.686;2023-06-10T09:12:29;101077.63;;;28.15;50.24
13068;BME280;6600;51.362;6.686;2023-06-10T09:14:55;101080.81;;;27.83;49.86
13068;BME280;6600;51.362;6.686;2023-06-10T09:17:20;101074.53;;;27.99;50.92
13068;BME280;6600;51.362;6.686;2023-06-10T09:19:46;101077.91;;;28.05;49.88
13068;BME280;6600;51.362;6.686;2023-06-10T09:22:11;101077.91;;;28.05;50.54
13068;BME280;6600;51.362;6.686;2023-06-10T09:24:37;101071.13;;;28.11;50.33
13068;BME280;6600;51.362;6.686;2023-06-10T09:27:04;101072.75;;;28.29;50.52
13068;BME280;6600;51.362;6.686;2023-06-10T09:29:30;101072.09;;;28.49;51.12
13068;BME280;6600;51.362;6.686;2023-06-10T09:31:55;101069.00;;;28.51;49.39
13068;BME280;6600;51.362;6.686;2023-06-10T09:34:25;101068.19;;;28.68;49.70
13068;BME280;6600;51.362;6.686;2023-06-10T09:36:50;101076.28;;;28.73;49.54
13068;BME280;6600;51.362;6.686;2023-06-10T09:39:17;101078.63;;;29.00;50.68
13068;BME280;6600;51.362;6.686;2023-06-10T09:41:44;101073.78;;;28.97;48.88
13068;BME280;6600;51.362;6.686;2023-06-10T09:44:17;101066.81;;;28.91;48.42
13068;BME280;6600;51.362;6.686;2023-06-10T09:46:48;101066.81;;;28.91;49.06
13068;BME280;6600;51.362;6.686;2023-06-10T09:49:13;101066.00;;;28.90;49.20
13068;BME280;6600;51.362;6.686;2023-06-10T09:51:50;101060.03;;;28.88;48.19
13068;BME280;6600;51.362;6.686;2023-06-10T09:54:16;101060.53;;;29.28;48.90
13068;BME280;6600;51.362;6.686;2023-06-10T09:56:41;101052.78;;;29.13;47.92
13068;BME280;6600;51.362;6.686;2023-06-10T09:59:08;101062.75;;;29.35;49.14
13068;BME280;6600;51.362;6.686;2023-06-10T10:01:34;101063.41;;;29.40;49.74
13068;BME280;6600;51.362;6.686;2023-06-10T10:04:00;101058.06;;;29.65;47.69
13068;BME280;6600;51.362;6.686;2023-06-10T10:06:27;101056.81;;;29.53;48.00
13068;BME280;6600;51.362;6.686;2023-06-10T10:08:52;101054.91;;;29.75;48.05
13068;BME280;6600;51.362;6.686;2023-06-10T10:11:20;101053.59;;;29.72;47.31
13068;BME280;6600;51.362;6.686;2023-06-10T10:13:50;101052.25;;;29.57;47.44
13068;BME280;6600;51.362;6.686;2023-06-10T10:16:29;101056.44;;;29.64;47.46
13068;BME280;6600;51.362;6.686;2023-06-10T10:19:04;101048.31;;;29.58;47.82
13068;BME280;6600;51.362;6.686;2023-06-10T10:21:37;101050.50;;;29.74;47.56
13068;BME280;6600;51.362;6.686;2023-06-10T10:24:09;101049.28;;;29.63;46.50
13068;BME280;6600;51.362;6.686;2023-06-10T10:26:38;101047.28;;;29.72;47.66
13068;BME280;6600;51.362;6.686;2023-06-10T10:29:10;101048.28;;;29.67;46.22
13068;BME280;6600;51.362;6.686;2023-06-10T10:31:37;101050.63;;;29.56;46.20
13068;BME280;6600;51.362;6.686;2023-06-10T10:34:09;101040.53;;;29.61;47.39
13068;BME280;6600;51.362;6.686;2023-06-10T10:36:37;101044.34;;;29.97;46.68
13068;BME280;6600;51.362;6.686;2023-06-10T10:39:04;101035.84;;;30.02;45.76
13068;BME280;6600;51.362;6.686;2023-06-10T10:41:31;101042.66;;;30.05;44.25
13068;BME280;6600;51.362;6.686;2023-06-10T10:43:58;101038.00;;;29.97;45.01
13068;BME280;6600;51.362;6.686;2023-06-10T10:46:24;101034.09;;;29.98;45.29
13068;BME280;6600;51.362;6.686;2023-06-10T10:48:54;101027.88;;;30.01;45.71
13068;BME280;6600;51.362;6.686;2023-06-10T10:51:23;101036.09;;;30.30;44.98
13068;BME280;6600;51.362;6.686;2023-06-10T10:54:14;101020.84;;;30.24;43.84
13068;BME280;6600;51.362;6.686;2023-06-10T10:59:55;101021.59;;;30.78;44.94
13068;BME280;6600;51.362;6.686;2023-06-10T11:05:15;101014.16;;;31.03;43.41
13068;BME280;6600;51.362;6.686;2023-06-10T11:07:40;101019.66;;;30.79;43.91
13068;BME280;6600;51.362;6.686;2023-06-10T11:10:16;101024.69;;;30.65;43.52
13068;BME280;6600;51.362;6.686;2023-06-10T11:15:10;101016.88;;;30.91;42.62
13068;BME280;6600;51.362;6.686;2023-06-10T11:17:36;101011.16;;;31.08;43.62
13068;BME280;6600;51.362;6.686;2023-06-10T11:20:01;101013.47;;;31.30;41.23
13068;BME280;6600;51.362;6.686;2023-06-10T11:22:26;101015.75;;;31.28;42.05
13068;BME280;6600;51.362;6.686;2023-06-10T11:24:52;101010.09;;;31.25;39.80
13068;BME280;6600;51.362;6.686;2023-06-10T11:27:22;101006.31;;;31.29;40.95
13068;BME280;6600;51.362;6.686;2023-06-10T11:32:33;101009.63;;;31.11;40.02
13068;BME280;6600;51.362;6.686;2023-06-10T11:34:59;101004.44;;;31.21;41.22
13068;BME280;6600;51.362;6.686;2023-06-10T11:37:25;101006.53;;;31.24;41.86
13068;BME280;6600;51.362;6.686;2023-06-10T11:39:57;100987.84;;;31.21;40.10
13068;BME280;6600;51.362;6.686;2023-06-10T11:42:23;100990.34;;;31.38;42.42
13068;BME280;6600;51.362;6.686;2023-06-10T11:44:52;100990.84;;;31.28;41.96
13068;BME280;6600;51.362;6.686;2023-06-10T11:47:18;100990.50;;;31.18;41.07
13068;BME280;6600;51.362;6.686;2023-06-10T11:49:44;100998.94;;;31.09;40.37
13068;BME280;6600;51.362;6.686;2023-06-10T11:52:10;100987.38;;;31.07;41.92
13068;BME280;6600;51.362;6.686;2023-06-10T11:54:36;100977.47;;;31.30;43.15
13068;BME280;6600;51.362;6.686;2023-06-10T11:57:02;100988.28;;;31.35;41.61
13068;BME280;6600;51.362;6.686;2023-06-10T11:59:29;100984.38;;;31.24;40.17
13068;BME280;6600;51.362;6.686;2023-06-10T12:01:55;100977.91;;;31.32;41.98
13068;BME280;6600;51.362;6.686;2023-06-10T12:04:20;100984.47;;;31.28;41.38
13068;BME280;6600;51.362;6.686;2023-06-10T12:09:18;100970.78;;;31.07;41.48
13068;BME280;6600;51.362;6.686;2023-06-10T12:11:45;100973.53;;;31.31;41.88
13068;BME280;6600;51.362;6.686;2023-06-10T12:14:10;100974.47;;;31.23;40.26
13068;BME280;6600;51.362;6.686;2023-06-10T12:16:35;100965.44;;;31.38;41.53
13068;BME280;6600;51.362;6.686;2023-06-10T12:19:03;100974.59;;;31.79;41.21
13068;BME280;6600;51.362;6.686;2023-06-10T12:21:29;100975.06;;;32.09;39.74
13068;BME280;6600;51.362;6.686;2023-06-10T12:24:09;100969.16;;;32.10;39.38
13068;BME280;6600;51.362;6.686;2023-06-10T12:26:42;100967.66;;;31.85;39.34
13068;BME280;6600;51.362;6.686;2023-06-10T12:29:19;100973.06;;;31.53;39.42
13068;BME280;6600;51.362;6.686;2023-06-10T12:34:17;100967.72;;;31.61;39.62
13068;BME280;6600;51.362;6.686;2023-06-10T12:36:50;100995.16;;;31.66;38.98
13068;BME280;6600;51.362;6.686;2023-06-10T12:39:15;100977.06;;;31.56;39.58
13068;BME280;6600;51.362;6.686;2023-06-10T12:41:47;100968.88;;;31.60;39.64
13068;BME280;6600;51.362;6.686;2023-06-10T12:44:13;100964.03;;;31.44;38.57
13068;BME280;6600;51.362;6.686;2023-06-10T12:46:39;100959.56;;;31.80;40.77
13068;BME280;6600;51.362;6.686;2023-06-10T12:49:04;100961.69;;;31.98;39.87
13068;BME280;6600;51.362;6.686;2023-06-10T12:51:29;100973.28;;;31.88;38.38
13068;BME280;6600;51.362;6.686;2023-06-10T12:53:55;100963.81;;;32.17;40.69
13068;BME280;6600;51.362;6.686;2023-06-10T12:56:20;100962.94;;;32.44;39.36
13068;BME280;6600;51.362;6.686;2023-06-10T12:58:47;100965.38;;;32.30;39.27
13068;BME280;6600;51.362;6.686;2023-06-10T13:01:12;100974.03;;;32.44;39.07
13068;BME280;6600;51.362;6.686;2023-06-10T13:03:38;100965.47;;;32.34;37.46
13068;BME280;6600;51.362;6.686;2023-06-10T13:06:04;100964.47;;;32.26;38.68
13068;BME280;6600;51.362;6.686;2023-06-10T13:08:30;100955.97;;;32.19;38.71
13068;BME280;6600;51.362;6.686;2023-06-10T13:10:56;100961.84;;;32.18;39.11
13068;BME280;6600;51.362;6.686;2023-06-10T13:13:21;100962.03;;;31.97;39.10
13068;BME280;6600;51.362;6.686;2023-06-10T13:15:46;100951.31;;;31.68;39.42